createdAt,value
2018-05-02T00:01:02.127Z,0.00
2018-05-02T00:02:08.091Z,0.00
2018-05-02T00:03:14.094Z,0.00
2018-05-02T00:04:20.101Z,0.00
2018-05-02T00:05:26.121Z,0.00
2018-05-02T00:06:32.171Z,0.00
2018-05-02T00:07:38.162Z,0.00
2018-05-02T00:08:44.197Z,0.00
2018-05-02T00:09:50.218Z,0.00
2018-05-02T00:10:56.224Z,0.00
2018-05-02T00:12:02.256Z,0.00
2018-05-02T00:13:08.262Z,0.00
2018-05-02T00:14:14.281Z,0.00
2018-05-02T00:15:20.314Z,0.00
2018-05-02T00:16:26.344Z,0.00
2018-05-02T00:17:32.351Z,0.00
2018-05-02T00:18:38.367Z,0.00
2018-05-02T00:19:44.363Z,0.00
2018-05-02T00:20:50.396Z,0.00
2018-05-02T00:21:56.433Z,0.00
2018-05-02T00:23:02.411Z,0.00
2018-05-02T00:24:08.439Z,0.00
2018-05-02T00:25:14.460Z,0.00
2018-05-02T00:26:20.487Z,0.00
2018-05-02T00:27:26.512Z,0.00
2018-05-02T00:28:32.559Z,0.00
2018-05-02T00:29:38.516Z,0.00
2018-05-02T00:30:44.530Z,0.00
2018-05-02T00:31:50.571Z,0.00
2018-05-02T00:32:56.547Z,0.00
2018-05-02T00:34:02.590Z,0.00
2018-05-02T00:35:08.591Z,0.00
2018-05-02T00:36:14.588Z,0.00
2018-05-02T00:37:20.627Z,0.00
2018-05-02T00:38:26.626Z,0.00
2018-05-02T00:39:32.641Z,0.00
2018-05-02T00:40:38.656Z,0.00
2018-05-02T00:41:44.703Z,0.00
2018-05-02T00:42:50.679Z,0.00
2018-05-02T00:43:56.676Z,0.00
2018-05-02T00:45:02.690Z,0.00
2018-05-02T00:46:08.692Z,0.00
2018-05-02T00:47:14.738Z,0.00
2018-05-02T00:48:20.715Z,0.00
2018-05-02T00:49:26.741Z,0.00
2018-05-02T00:50:32.735Z,0.00
2018-05-02T00:51:38.771Z,0.00
2018-05-02T00:52:44.778Z,0.00
2018-05-02T00:53:50.770Z,0.00
2018-05-02T00:54:56.781Z,0.00
2018-05-02T00:56:02.788Z,0.00
2018-05-02T00:57:08.828Z,0.00
2018-05-02T00:58:14.820Z,0.00
2018-05-02T00:59:20.834Z,0.00
2018-05-02T01:00:26.341Z,0.00
2018-05-02T01:01:32.866Z,0.00
2018-05-02T01:02:38.844Z,0.00
2018-05-02T01:03:44.852Z,0.00
2018-05-02T01:04:50.882Z,0.00
2018-05-02T01:05:56.871Z,0.00
2018-05-02T01:07:02.907Z,0.00
2018-05-02T01:08:08.887Z,0.00
2018-05-02T01:09:14.914Z,0.00
2018-05-02T01:10:20.924Z,0.00
2018-05-02T01:11:26.922Z,0.00
2018-05-02T01:12:32.970Z,0.00
2018-05-02T01:13:38.927Z,0.00
2018-05-02T01:14:44.933Z,0.00
2018-05-02T01:15:51.942Z,0.00
2018-05-02T01:16:57.451Z,0.00
2018-05-02T01:18:03.011Z,0.00
2018-05-02T01:19:08.991Z,0.00
2018-05-02T01:20:14.980Z,0.00
2018-05-02T01:21:21.985Z,0.00
2018-05-02T01:22:27.030Z,0.00
2018-05-02T01:23:33.023Z,0.00
2018-05-02T01:24:39.000Z,0.00
2018-05-02T01:25:45.025Z,0.00
2018-05-02T01:26:51.069Z,0.00
2018-05-02T01:27:57.025Z,0.00
2018-05-02T01:29:03.049Z,0.00
2018-05-02T01:30:09.046Z,0.00
2018-05-02T01:31:15.059Z,0.00
2018-05-02T01:32:21.082Z,0.00
2018-05-02T01:33:27.093Z,0.00
2018-05-02T01:34:33.073Z,0.00
2018-05-02T01:35:39.077Z,0.00
2018-05-02T01:36:45.112Z,0.00
2018-05-02T01:37:51.082Z,0.00
2018-05-02T01:38:57.092Z,0.00
2018-05-02T01:40:03.109Z,0.00
2018-05-02T01:41:09.107Z,0.00
2018-05-02T01:42:15.135Z,0.00
2018-05-02T01:43:22.121Z,0.00
2018-05-02T01:44:27.128Z,0.00
2018-05-02T01:45:33.135Z,0.00
2018-05-02T01:46:39.196Z,0.00
2018-05-02T01:47:45.144Z,0.00
2018-05-02T01:48:51.153Z,0.00
2018-05-02T01:49:57.169Z,0.00
2018-05-02T01:51:03.156Z,0.00
2018-05-02T01:52:09.197Z,0.00
2018-05-02T01:53:15.160Z,0.00
2018-05-02T01:54:21.191Z,0.00
2018-05-02T01:55:27.163Z,0.00
2018-05-02T01:56:33.161Z,0.00
2018-05-02T01:57:39.201Z,0.00
2018-05-02T01:58:45.177Z,0.00
2018-05-02T01:59:51.197Z,0.00
2018-05-02T02:00:57.184Z,0.00
2018-05-02T02:02:03.238Z,0.00
2018-05-02T02:03:09.178Z,0.00
2018-05-02T02:04:15.391Z,0.00
2018-05-02T02:05:21.198Z,0.00
2018-05-02T02:06:27.205Z,0.00
2018-05-02T02:07:33.251Z,0.00
2018-05-02T02:08:39.233Z,0.00
2018-05-02T02:09:45.224Z,0.00
2018-05-02T02:10:51.197Z,0.00
2018-05-02T02:11:57.224Z,0.00
2018-05-02T02:13:03.204Z,0.00
2018-05-02T02:14:09.215Z,0.00
2018-05-02T02:15:15.196Z,0.00
2018-05-02T02:16:21.211Z,0.00
2018-05-02T02:17:27.260Z,0.00
2018-05-02T02:18:33.229Z,0.00
2018-05-02T02:19:39.218Z,0.00
2018-05-02T02:20:45.208Z,0.00
2018-05-02T02:21:51.252Z,0.00
2018-05-02T02:22:57.215Z,0.00
2018-05-02T02:24:03.214Z,0.00
2018-05-02T02:25:09.208Z,0.00
2018-05-02T02:26:15.219Z,0.00
2018-05-02T02:27:21.295Z,0.00
2018-05-02T02:28:27.216Z,0.00
2018-05-02T02:29:33.222Z,0.00
2018-05-02T02:30:39.239Z,0.00
2018-05-02T02:31:45.204Z,0.00
2018-05-02T02:32:51.251Z,0.00
2018-05-02T02:33:57.262Z,0.00
2018-05-02T02:35:03.217Z,0.00
2018-05-02T02:36:09.201Z,0.00
2018-05-02T02:37:15.226Z,0.00
2018-05-02T02:38:21.191Z,0.00
2018-05-02T02:39:27.206Z,0.00
2018-05-02T02:40:33.187Z,0.00
2018-05-02T02:41:39.184Z,0.00
2018-05-02T02:42:45.199Z,0.00
2018-05-02T02:43:52.163Z,0.00
2018-05-02T02:44:57.174Z,0.00
2018-05-02T02:46:03.177Z,0.00
2018-05-02T02:47:09.184Z,0.00
2018-05-02T02:48:15.162Z,0.00
2018-05-02T02:49:21.141Z,0.00
2018-05-02T02:50:27.160Z,0.00
2018-05-02T02:51:33.145Z,0.00
2018-05-02T02:52:39.147Z,0.00
2018-05-02T02:53:45.129Z,0.00
2018-05-02T02:54:51.115Z,0.00
2018-05-02T02:55:57.130Z,0.00
2018-05-02T02:57:03.132Z,0.00
2018-05-02T02:58:09.109Z,0.00
2018-05-02T02:59:15.105Z,0.00
2018-05-02T03:00:21.103Z,0.00
2018-05-02T03:01:27.109Z,0.00
2018-05-02T03:02:33.109Z,0.00
2018-05-02T03:03:39.069Z,0.00
2018-05-02T03:04:45.067Z,0.00
2018-05-02T03:05:51.064Z,0.00
2018-05-02T03:06:57.048Z,0.00
2018-05-02T03:08:03.088Z,0.00
2018-05-02T03:09:09.046Z,0.00
2018-05-02T03:10:15.052Z,0.00
2018-05-02T03:11:21.027Z,0.00
2018-05-02T03:12:27.041Z,0.00
2018-05-02T03:13:33.033Z,0.00
2018-05-02T03:14:39.037Z,0.00
2018-05-02T03:15:45.010Z,0.00
2018-05-02T03:16:51.020Z,0.00
2018-05-02T03:17:56.999Z,0.00
2018-05-02T03:19:03.020Z,0.00
2018-05-02T03:20:08.973Z,0.00
2018-05-02T03:21:14.974Z,0.00
2018-05-02T03:22:20.975Z,0.00
2018-05-02T03:23:26.993Z,0.00
2018-05-02T03:24:32.968Z,0.00
2018-05-02T03:25:38.953Z,0.00
2018-05-02T03:26:44.949Z,0.00
2018-05-02T03:27:50.942Z,0.00
2018-05-02T03:28:56.981Z,0.00
2018-05-02T03:30:02.934Z,0.00
2018-05-02T03:31:08.932Z,0.00
2018-05-02T03:32:14.914Z,0.00
2018-05-02T03:33:21.380Z,0.00
2018-05-02T03:34:26.924Z,0.00
2018-05-02T03:35:32.929Z,0.00
2018-05-02T03:36:38.890Z,0.00
2018-05-02T03:37:44.894Z,0.00
2018-05-02T03:38:50.917Z,0.00
2018-05-02T03:39:56.889Z,0.00
2018-05-02T03:41:02.872Z,0.00
2018-05-02T03:42:08.871Z,0.00
2018-05-02T03:43:14.862Z,0.00
2018-05-02T03:44:20.868Z,0.00
2018-05-02T03:45:26.868Z,0.00
2018-05-02T03:46:32.838Z,0.00
2018-05-02T03:47:38.830Z,0.00
2018-05-02T03:48:44.858Z,0.00
2018-05-02T03:49:50.821Z,0.00
2018-05-02T03:50:56.813Z,0.00
2018-05-02T03:52:02.803Z,0.00
2018-05-02T03:53:08.788Z,0.00
2018-05-02T03:54:14.815Z,0.00
2018-05-02T03:55:20.788Z,5.63
2018-05-02T03:56:26.824Z,5.63
2018-05-02T03:57:34.781Z,5.63
2018-05-02T03:58:38.765Z,5.63
2018-05-02T03:59:44.881Z,5.63
2018-05-02T04:00:50.754Z,5.63
2018-05-02T04:01:56.766Z,5.63
2018-05-02T04:03:02.746Z,11.25
2018-05-02T04:04:08.767Z,11.25
2018-05-02T04:05:14.765Z,11.25
2018-05-02T04:06:20.760Z,11.25
2018-05-02T04:07:26.735Z,11.25
2018-05-02T04:08:32.753Z,16.88
2018-05-02T04:09:38.734Z,16.88
2018-05-02T04:10:44.772Z,16.88
2018-05-02T04:11:50.729Z,16.88
2018-05-02T04:12:56.754Z,22.50
2018-05-02T04:14:02.744Z,22.50
2018-05-02T04:15:08.775Z,22.50
2018-05-02T04:16:14.776Z,28.13
2018-05-02T04:17:20.768Z,28.13
2018-05-02T04:18:26.755Z,28.13
2018-05-02T04:19:32.758Z,33.75
2018-05-02T04:20:38.806Z,33.75
2018-05-02T04:21:44.763Z,39.38
2018-05-02T04:22:50.787Z,39.38
2018-05-02T04:23:56.786Z,45.00
2018-05-02T04:25:02.795Z,45.00
2018-05-02T04:26:08.878Z,50.63
2018-05-02T04:27:14.806Z,50.63
2018-05-02T04:28:20.851Z,56.25
2018-05-02T04:29:27.834Z,56.25
2018-05-02T04:30:32.864Z,56.25
2018-05-02T04:31:38.941Z,56.25
2018-05-02T04:32:44.907Z,61.88
2018-05-02T04:33:50.894Z,61.88
2018-05-02T04:34:56.931Z,61.88
2018-05-02T04:36:02.980Z,67.50
2018-05-02T04:37:08.979Z,67.50
2018-05-02T04:38:14.983Z,73.13
2018-05-02T04:39:21.012Z,73.13
2018-05-02T04:40:27.036Z,73.13
2018-05-02T04:41:33.105Z,78.75
2018-05-02T04:42:39.078Z,73.13
2018-05-02T04:43:45.100Z,73.13
2018-05-02T04:44:51.129Z,78.75
2018-05-02T04:45:57.164Z,78.75
2018-05-02T04:47:03.199Z,78.75
2018-05-02T04:48:09.209Z,78.75
2018-05-02T04:49:15.237Z,84.38
2018-05-02T04:50:21.272Z,90.00
2018-05-02T04:51:27.434Z,95.63
2018-05-02T04:52:33.383Z,95.63
2018-05-02T04:53:39.391Z,101.25
2018-05-02T04:54:45.392Z,101.25
2018-05-02T04:55:51.450Z,106.88
2018-05-02T04:56:57.506Z,112.50
2018-05-02T04:58:03.512Z,118.13
2018-05-02T04:59:09.550Z,123.75
2018-05-02T05:00:15.581Z,129.38
2018-05-02T05:01:21.629Z,135.00
2018-05-02T05:02:27.679Z,135.00
2018-05-02T05:03:33.714Z,135.00
2018-05-02T05:04:39.741Z,135.00
2018-05-02T05:05:45.790Z,129.38
2018-05-02T05:06:51.854Z,123.75
2018-05-02T05:07:57.907Z,123.75
2018-05-02T05:09:03.940Z,123.75
2018-05-02T05:10:09.988Z,129.38
2018-05-02T05:11:16.040Z,129.38
2018-05-02T05:12:22.129Z,129.38
2018-05-02T05:13:28.226Z,129.38
2018-05-02T05:14:34.190Z,135.00
2018-05-02T05:15:40.247Z,140.63
2018-05-02T05:16:46.316Z,146.25
2018-05-02T05:17:52.395Z,157.50
2018-05-02T05:18:58.426Z,174.38
2018-05-02T05:20:04.486Z,191.25
2018-05-02T05:21:10.542Z,208.13
2018-05-02T05:22:16.598Z,213.75
2018-05-02T05:23:22.695Z,225.00
2018-05-02T05:24:28.753Z,236.25
2018-05-02T05:25:34.337Z,241.88
2018-05-02T05:26:40.897Z,253.13
2018-05-02T05:27:46.991Z,258.75
2018-05-02T05:28:53.072Z,264.38
2018-05-02T05:29:59.151Z,264.38
2018-05-02T05:31:05.288Z,270.00
2018-05-02T05:32:11.391Z,264.38
2018-05-02T05:33:17.571Z,264.38
2018-05-02T05:34:24.512Z,258.75
2018-05-02T05:35:29.606Z,253.13
2018-05-02T05:36:35.707Z,253.13
2018-05-02T05:37:41.835Z,253.13
2018-05-02T05:38:47.949Z,253.13
2018-05-02T05:39:54.021Z,253.13
2018-05-02T05:41:00.151Z,258.75
2018-05-02T05:42:06.261Z,264.38
2018-05-02T05:43:12.397Z,270.00
2018-05-02T05:44:18.465Z,275.63
2018-05-02T05:45:24.583Z,270.00
2018-05-02T05:46:30.695Z,275.63
2018-05-02T05:47:36.824Z,281.25
2018-05-02T05:48:42.959Z,281.25
2018-05-02T05:49:49.069Z,286.88
2018-05-02T05:50:55.187Z,292.50
2018-05-02T05:52:01.388Z,292.50
2018-05-02T05:53:07.487Z,298.13
2018-05-02T05:54:13.720Z,303.75
2018-05-02T05:55:19.701Z,303.75
2018-05-02T05:56:25.843Z,309.38
2018-05-02T05:57:31.980Z,315.00
2018-05-02T05:58:38.148Z,315.00
2018-05-02T05:59:44.261Z,320.63
2018-05-02T06:00:50.531Z,326.25
2018-05-02T06:01:57.912Z,331.88
2018-05-02T06:03:02.701Z,331.88
2018-05-02T06:04:08.824Z,331.88
2018-05-02T06:05:15.026Z,331.88
2018-05-02T06:06:21.136Z,337.50
2018-05-02T06:07:27.387Z,348.75
2018-05-02T06:08:33.469Z,348.75
2018-05-02T06:09:40.606Z,354.38
2018-05-02T06:10:45.791Z,360.00
2018-05-02T06:11:51.938Z,365.63
2018-05-02T06:12:58.128Z,365.63
2018-05-02T06:14:04.262Z,371.25
2018-05-02T06:15:10.436Z,371.25
2018-05-02T06:16:16.601Z,376.88
2018-05-02T06:17:22.779Z,388.13
2018-05-02T06:18:28.981Z,393.75
2018-05-02T06:19:35.141Z,393.75
2018-05-02T06:20:41.403Z,399.38
2018-05-02T06:21:47.496Z,399.38
2018-05-02T06:22:53.706Z,393.75
2018-05-02T06:23:59.859Z,393.75
2018-05-02T06:25:06.048Z,388.13
2018-05-02T06:26:12.311Z,382.50
2018-05-02T06:27:18.427Z,382.50
2018-05-02T06:28:24.638Z,376.88
2018-05-02T06:29:30.817Z,354.38
2018-05-02T06:30:36.976Z,320.63
2018-05-02T06:31:43.219Z,292.50
2018-05-02T06:32:49.387Z,270.00
2018-05-02T06:33:55.560Z,253.13
2018-05-02T06:35:01.722Z,247.50
2018-05-02T06:36:07.920Z,241.88
2018-05-02T06:37:14.078Z,241.88
2018-05-02T06:38:20.291Z,247.50
2018-05-02T06:39:26.444Z,236.25
2018-05-02T06:40:32.608Z,225.00
2018-05-02T06:41:39.785Z,225.00
2018-05-02T06:42:44.964Z,230.63
2018-05-02T06:43:51.158Z,230.63
2018-05-02T06:44:57.390Z,230.63
2018-05-02T06:46:03.491Z,230.63
2018-05-02T06:47:09.664Z,230.63
2018-05-02T06:48:15.912Z,236.25
2018-05-02T06:49:22.158Z,241.88
2018-05-02T06:50:28.233Z,241.88
2018-05-02T06:51:34.432Z,241.88
2018-05-02T06:52:40.623Z,241.88
2018-05-02T06:53:46.846Z,241.88
2018-05-02T06:54:53.011Z,241.88
2018-05-02T06:55:59.234Z,241.88
2018-05-02T06:57:05.421Z,247.50
2018-05-02T06:58:11.669Z,247.50
2018-05-02T06:59:17.837Z,247.50
2018-05-02T07:00:24.048Z,241.88
2018-05-02T07:01:30.272Z,236.25
2018-05-02T07:02:37.474Z,230.63
2018-05-02T07:03:43.016Z,230.63
2018-05-02T07:04:48.897Z,230.63
2018-05-02T07:05:55.120Z,230.63
2018-05-02T07:07:01.409Z,230.63
2018-05-02T07:08:07.584Z,236.25
2018-05-02T07:09:13.777Z,236.25
2018-05-02T07:10:20.025Z,247.50
2018-05-02T07:11:26.243Z,253.13
2018-05-02T07:12:32.460Z,264.38
2018-05-02T07:13:38.840Z,275.63
2018-05-02T07:14:44.952Z,270.00
2018-05-02T07:15:51.158Z,270.00
2018-05-02T07:16:57.417Z,270.00
2018-05-02T07:18:03.634Z,275.63
2018-05-02T07:19:09.910Z,270.00
2018-05-02T07:20:16.122Z,264.38
2018-05-02T07:21:22.369Z,258.75
2018-05-02T07:22:28.617Z,270.00
2018-05-02T07:23:35.892Z,275.63
2018-05-02T07:24:41.121Z,292.50
2018-05-02T07:25:47.381Z,292.50
2018-05-02T07:26:53.652Z,303.75
2018-05-02T07:27:59.905Z,315.00
2018-05-02T07:29:06.196Z,343.13
2018-05-02T07:30:12.451Z,348.75
2018-05-02T07:31:18.715Z,343.13
2018-05-02T07:32:25.091Z,337.50
2018-05-02T07:33:31.275Z,337.50
2018-05-02T07:34:37.538Z,337.50
2018-05-02T07:35:43.829Z,348.75
2018-05-02T07:36:50.103Z,331.88
2018-05-02T07:37:56.395Z,315.00
2018-05-02T07:39:02.710Z,320.63
2018-05-02T07:40:08.986Z,337.50
2018-05-02T07:41:15.278Z,343.13
2018-05-02T07:42:21.548Z,354.38
2018-05-02T07:43:27.852Z,371.25
2018-05-02T07:44:34.133Z,376.88
2018-05-02T07:45:41.450Z,399.38
2018-05-02T07:46:46.746Z,393.75
2018-05-02T07:47:53.046Z,405.00
2018-05-02T07:48:59.408Z,421.88
2018-05-02T07:50:05.664Z,444.38
2018-05-02T07:51:11.992Z,461.25
2018-05-02T07:52:18.303Z,450.00
2018-05-02T07:53:24.661Z,444.38
2018-05-02T07:54:30.977Z,444.38
2018-05-02T07:55:37.389Z,450.00
2018-05-02T07:56:43.675Z,450.00
2018-05-02T07:57:49.990Z,461.25
2018-05-02T07:58:56.344Z,455.63
2018-05-02T08:00:02.668Z,450.00
2018-05-02T08:01:09.017Z,444.38
2018-05-02T08:02:15.380Z,433.13
2018-05-02T08:03:21.738Z,438.75
2018-05-02T08:04:28.073Z,450.00
2018-05-02T08:05:35.411Z,472.50
2018-05-02T08:06:40.774Z,478.13
2018-05-02T08:07:48.126Z,489.38
2018-05-02T08:08:53.016Z,500.63
2018-05-02T08:09:59.848Z,500.63
2018-05-02T08:11:06.238Z,478.13
2018-05-02T08:12:12.584Z,466.88
2018-05-02T08:13:18.979Z,466.88
2018-05-02T08:14:25.419Z,478.13
2018-05-02T08:15:31.723Z,489.38
2018-05-02T08:16:38.096Z,506.25
2018-05-02T08:17:44.471Z,534.38
2018-05-02T08:18:50.879Z,551.25
2018-05-02T08:19:57.273Z,562.50
2018-05-02T08:21:03.644Z,556.88
2018-05-02T08:22:10.142Z,568.13
2018-05-02T08:23:16.456Z,590.63
2018-05-02T08:24:22.910Z,590.63
2018-05-02T08:25:29.264Z,573.75
2018-05-02T08:26:35.686Z,556.88
2018-05-02T08:27:42.092Z,568.13
2018-05-02T08:28:48.539Z,568.13
2018-05-02T08:29:54.929Z,568.13
2018-05-02T08:31:00.869Z,568.13
2018-05-02T08:32:07.799Z,562.50
2018-05-02T08:33:14.225Z,579.38
2018-05-02T08:34:20.679Z,607.50
2018-05-02T08:35:27.083Z,585.00
2018-05-02T08:36:33.523Z,596.25
2018-05-02T08:37:39.967Z,585.00
2018-05-02T08:38:46.465Z,568.13
2018-05-02T08:39:52.842Z,568.13
2018-05-02T08:40:59.275Z,573.75
2018-05-02T08:42:05.729Z,579.38
2018-05-02T08:43:12.184Z,590.63
2018-05-02T08:44:19.645Z,596.25
2018-05-02T08:45:25.079Z,590.63
2018-05-02T08:46:31.536Z,590.63
2018-05-02T08:47:37.989Z,590.63
2018-05-02T08:48:44.468Z,590.63
2018-05-02T08:49:50.939Z,585.00
2018-05-02T08:50:57.406Z,585.00
2018-05-02T08:52:03.823Z,579.38
2018-05-02T08:53:10.309Z,590.63
2018-05-02T08:54:16.776Z,585.00
2018-05-02T08:55:23.218Z,590.63
2018-05-02T08:56:29.693Z,590.63
2018-05-02T08:57:36.171Z,585.00
2018-05-02T08:58:42.656Z,579.38
2018-05-02T08:59:49.105Z,573.75
2018-05-02T09:00:55.567Z,585.00
2018-05-02T09:02:01.545Z,585.00
2018-05-02T09:03:08.517Z,613.13
2018-05-02T09:04:15.011Z,652.50
2018-05-02T09:05:21.474Z,646.88
2018-05-02T09:06:27.957Z,624.38
2018-05-02T09:07:34.447Z,630.00
2018-05-02T09:08:40.938Z,596.25
2018-05-02T09:09:47.425Z,601.88
2018-05-02T09:10:53.892Z,635.63
2018-05-02T09:12:00.386Z,663.75
2018-05-02T09:13:06.397Z,714.38
2018-05-02T09:14:13.415Z,742.50
2018-05-02T09:15:19.893Z,725.63
2018-05-02T09:16:26.424Z,703.13
2018-05-02T09:17:32.937Z,708.75
2018-05-02T09:18:38.987Z,708.75
2018-05-02T09:19:45.990Z,691.88
2018-05-02T09:20:52.515Z,697.50
2018-05-02T09:21:59.051Z,691.88
2018-05-02T09:23:05.081Z,669.38
2018-05-02T09:24:12.142Z,641.25
2018-05-02T09:25:18.652Z,630.00
2018-05-02T09:26:24.711Z,630.00
2018-05-02T09:27:31.726Z,635.63
2018-05-02T09:28:38.311Z,641.25
2018-05-02T09:29:44.326Z,652.50
2018-05-02T09:30:51.382Z,675.00
2018-05-02T09:31:57.908Z,663.75
2018-05-02T09:33:04.464Z,680.63
2018-05-02T09:34:11.024Z,714.38
2018-05-02T09:35:17.583Z,736.88
2018-05-02T09:36:23.650Z,742.50
2018-05-02T09:37:30.705Z,748.13
2018-05-02T09:38:37.270Z,753.75
2018-05-02T09:39:43.869Z,770.63
2018-05-02T09:40:49.933Z,787.50
2018-05-02T09:41:57.005Z,787.50
2018-05-02T09:43:03.609Z,798.75
2018-05-02T09:44:10.317Z,798.75
2018-05-02T09:45:16.796Z,815.63
2018-05-02T09:46:23.422Z,804.38
2018-05-02T09:47:30.023Z,793.13
2018-05-02T09:48:36.636Z,787.50
2018-05-02T09:49:43.281Z,787.50
2018-05-02T09:50:49.864Z,781.88
2018-05-02T09:51:56.542Z,776.25
2018-05-02T09:53:03.125Z,765.00
2018-05-02T09:54:09.757Z,759.38
2018-05-02T09:55:16.423Z,765.00
2018-05-02T09:56:22.985Z,770.63
2018-05-02T09:57:29.613Z,781.88
2018-05-02T09:58:36.253Z,776.25
2018-05-02T09:59:42.919Z,770.63
2018-05-02T10:00:49.517Z,781.88
2018-05-02T10:01:56.161Z,781.88
2018-05-02T10:03:02.310Z,798.75
2018-05-02T10:04:08.973Z,804.38
2018-05-02T10:05:16.079Z,821.25
2018-05-02T10:06:22.739Z,815.63
2018-05-02T10:07:28.888Z,826.88
2018-05-02T10:08:36.037Z,826.88
2018-05-02T10:09:42.732Z,832.50
2018-05-02T10:10:48.865Z,832.50
2018-05-02T10:11:56.027Z,826.88
2018-05-02T10:13:02.696Z,826.88
2018-05-02T10:14:08.902Z,826.88
2018-05-02T10:15:16.037Z,826.88
2018-05-02T10:16:22.723Z,832.50
2018-05-02T10:17:29.386Z,838.13
2018-05-02T10:18:36.069Z,838.13
2018-05-02T10:19:42.776Z,838.13
2018-05-02T10:20:49.435Z,849.38
2018-05-02T10:21:55.615Z,860.63
2018-05-02T10:23:02.287Z,871.88
2018-05-02T10:24:09.487Z,866.25
2018-05-02T10:25:17.154Z,866.25
2018-05-02T10:26:22.878Z,866.25
2018-05-02T10:27:29.035Z,877.50
2018-05-02T10:28:36.231Z,888.75
2018-05-02T10:29:42.462Z,883.13
2018-05-02T10:30:49.614Z,871.88
2018-05-02T10:31:56.307Z,877.50
2018-05-02T10:33:03.007Z,877.50
2018-05-02T10:34:09.750Z,860.63
2018-05-02T10:35:16.428Z,866.25
2018-05-02T10:36:23.131Z,871.88
2018-05-02T10:37:29.835Z,866.25
2018-05-02T10:38:36.563Z,871.88
2018-05-02T10:39:43.289Z,877.50
2018-05-02T10:40:49.991Z,877.50
2018-05-02T10:41:56.713Z,877.50
2018-05-02T10:43:03.424Z,894.38
2018-05-02T10:44:09.663Z,900.00
2018-05-02T10:45:16.867Z,911.25
2018-05-02T10:46:23.608Z,916.88
2018-05-02T10:47:29.837Z,922.50
2018-05-02T10:48:37.063Z,916.88
2018-05-02T10:49:43.831Z,905.63
2018-05-02T10:50:50.565Z,916.88
2018-05-02T10:51:57.395Z,922.50
2018-05-02T10:53:03.556Z,922.50
2018-05-02T10:54:10.823Z,928.13
2018-05-02T10:55:17.556Z,933.75
2018-05-02T10:56:24.317Z,950.63
2018-05-02T10:57:31.088Z,956.25
2018-05-02T10:58:37.345Z,956.25
2018-05-02T10:59:44.632Z,956.25
2018-05-02T11:00:51.386Z,950.63
2018-05-02T11:01:58.199Z,939.38
2018-05-02T11:03:04.962Z,933.75
2018-05-02T11:04:11.781Z,945.00
2018-05-02T11:05:18.538Z,950.63
2018-05-02T11:06:24.840Z,967.50
2018-05-02T11:07:32.138Z,973.13
2018-05-02T11:08:38.942Z,990.00
2018-05-02T11:09:45.812Z,984.38
2018-05-02T11:10:52.574Z,984.38
2018-05-02T11:11:59.415Z,978.75
2018-05-02T11:13:05.750Z,978.75
2018-05-02T11:14:13.111Z,984.38
2018-05-02T11:15:19.940Z,973.13
2018-05-02T11:16:26.796Z,973.13
2018-05-02T11:17:33.672Z,995.63
2018-05-02T11:18:40.526Z,973.13
2018-05-02T11:19:47.420Z,1012.50
2018-05-02T11:20:54.270Z,1006.88
2018-05-02T11:22:01.223Z,1001.25
2018-05-02T11:23:08.001Z,1063.13
2018-05-02T11:24:14.910Z,1046.25
2018-05-02T11:25:21.389Z,1091.25
2018-05-02T11:26:28.194Z,1006.88
2018-05-02T11:27:35.582Z,978.75
2018-05-02T11:28:42.477Z,978.75
2018-05-02T11:29:48.911Z,973.13
2018-05-02T11:30:56.280Z,1006.88
2018-05-02T11:32:03.170Z,995.63
2018-05-02T11:33:10.067Z,1012.50
2018-05-02T11:34:17.023Z,1029.38
2018-05-02T11:35:23.888Z,1023.75
2018-05-02T11:36:30.803Z,1057.50
2018-05-02T11:37:38.717Z,1091.25
2018-05-02T11:38:44.661Z,1108.13
2018-05-02T11:39:51.600Z,1147.50
2018-05-02T11:40:58.530Z,1186.88
2018-05-02T11:42:04.999Z,1153.13
2018-05-02T11:43:12.464Z,1164.38
2018-05-02T11:44:19.480Z,1147.50
2018-05-02T11:45:26.458Z,1080.00
2018-05-02T11:46:33.463Z,1063.13
2018-05-02T11:47:40.464Z,1080.00
2018-05-02T11:48:47.472Z,1147.50
2018-05-02T11:49:54.499Z,1057.50
2018-05-02T11:51:01.010Z,1068.75
2018-05-02T11:52:08.483Z,1170.00
2018-05-02T11:53:15.493Z,1153.13
2018-05-02T11:54:22.053Z,1153.13
2018-05-02T11:55:29.550Z,1119.38
2018-05-02T11:56:36.108Z,1074.38
2018-05-02T11:57:43.669Z,1108.13
2018-05-02T11:58:50.643Z,1119.38
2018-05-02T11:59:57.674Z,1108.13
2018-05-02T12:01:04.685Z,1164.38
2018-05-02T12:02:11.709Z,1085.63
2018-05-02T12:03:18.730Z,1085.63
2018-05-02T12:04:25.284Z,1113.75
2018-05-02T12:05:32.776Z,1068.75
2018-05-02T12:06:39.403Z,1068.75
2018-05-02T12:07:46.813Z,1074.38
2018-05-02T12:08:53.877Z,1080.00
2018-05-02T12:10:00.891Z,1080.00
2018-05-02T12:11:07.902Z,1051.88
2018-05-02T12:12:14.923Z,1068.75
2018-05-02T12:13:21.473Z,990.00
2018-05-02T12:14:29.019Z,990.00
2018-05-02T12:15:35.511Z,1023.75
2018-05-02T12:16:43.020Z,1046.25
2018-05-02T12:17:50.052Z,1091.25
2018-05-02T12:18:57.067Z,1102.50
2018-05-02T12:20:03.612Z,1147.50
2018-05-02T12:21:10.619Z,1192.50
2018-05-02T12:22:18.153Z,1125.00
2018-05-02T12:23:24.714Z,1108.13
2018-05-02T12:24:32.274Z,1057.50
2018-05-02T12:25:38.818Z,1057.50
2018-05-02T12:26:46.370Z,1074.38
2018-05-02T12:27:53.448Z,1113.75
2018-05-02T12:28:59.948Z,1051.88
2018-05-02T12:30:07.005Z,1023.75
2018-05-02T12:31:14.528Z,1023.75
2018-05-02T12:32:21.112Z,1035.00
2018-05-02T12:33:28.573Z,1018.13
2018-05-02T12:34:35.603Z,1046.25
2018-05-02T12:35:42.097Z,1096.88
2018-05-02T12:36:49.612Z,1164.38
2018-05-02T12:37:56.147Z,1147.50
2018-05-02T12:39:03.671Z,1102.50
2018-05-02T12:40:10.721Z,1057.50
2018-05-02T12:41:17.735Z,995.63
2018-05-02T12:42:24.325Z,956.25
2018-05-02T12:43:31.403Z,950.63
2018-05-02T12:44:38.888Z,973.13
2018-05-02T12:45:46.880Z,990.00
2018-05-02T12:46:52.334Z,1006.88
2018-05-02T12:47:59.853Z,1040.63
2018-05-02T12:49:06.400Z,1029.38
2018-05-02T12:50:14.824Z,1035.00
2018-05-02T12:51:20.790Z,1040.63
2018-05-02T12:52:27.815Z,1046.25
2018-05-02T12:53:34.761Z,1068.75
2018-05-02T12:54:41.761Z,1063.13
2018-05-02T12:55:48.240Z,1046.25
2018-05-02T12:56:55.706Z,1046.25
2018-05-02T12:58:02.700Z,1046.25
2018-05-02T12:59:09.684Z,1040.63
2018-05-02T13:00:16.193Z,1046.25
2018-05-02T13:01:23.647Z,1035.00
2018-05-02T13:02:30.687Z,1074.38
2018-05-02T13:03:37.652Z,1080.00
2018-05-02T13:04:44.206Z,1113.75
2018-05-02T13:05:51.186Z,1085.63
2018-05-02T13:06:58.702Z,1113.75
2018-05-02T13:08:05.789Z,1091.25
2018-05-02T13:09:12.276Z,1108.13
2018-05-02T13:10:19.833Z,1074.38
2018-05-02T13:11:26.871Z,1074.38
2018-05-02T13:12:33.947Z,1029.38
2018-05-02T13:13:41.039Z,1051.88
2018-05-02T13:14:48.160Z,1040.63
2018-05-02T13:15:55.103Z,1051.88
2018-05-02T13:17:01.666Z,1046.25
2018-05-02T13:18:09.239Z,1035.00
2018-05-02T13:19:15.777Z,1006.88
2018-05-02T13:20:23.411Z,973.13
2018-05-02T13:21:30.375Z,950.63
2018-05-02T13:22:37.415Z,1001.25
2018-05-02T13:23:44.458Z,1080.00
2018-05-02T13:24:51.531Z,1175.63
2018-05-02T13:25:58.553Z,1170.00
2018-05-02T13:27:05.615Z,1153.13
2018-05-02T13:28:12.692Z,1164.38
2018-05-02T13:29:19.785Z,1063.13
2018-05-02T13:30:26.407Z,984.38
2018-05-02T13:31:33.957Z,956.25
2018-05-02T13:32:41.755Z,911.25
2018-05-02T13:33:48.110Z,973.13
2018-05-02T13:34:55.201Z,1029.38
2018-05-02T13:36:02.258Z,1023.75
2018-05-02T13:37:08.815Z,990.00
2018-05-02T13:38:16.368Z,995.63
2018-05-02T13:39:22.965Z,973.13
2018-05-02T13:40:30.026Z,984.38
2018-05-02T13:41:37.590Z,995.63
2018-05-02T13:42:44.244Z,973.13
2018-05-02T13:43:51.754Z,911.25
2018-05-02T13:44:58.762Z,883.13
2018-05-02T13:46:05.767Z,871.88
2018-05-02T13:47:12.813Z,866.25
2018-05-02T13:48:19.837Z,860.63
2018-05-02T13:49:26.852Z,877.50
2018-05-02T13:51:40.862Z,888.75
2018-05-02T13:52:47.355Z,911.25
2018-05-02T13:53:54.850Z,933.75
2018-05-02T13:55:01.836Z,950.63
2018-05-02T13:56:08.803Z,950.63
2018-05-02T13:57:15.404Z,933.75
2018-05-02T13:58:22.769Z,933.75
2018-05-02T13:59:29.248Z,945.00
2018-05-02T14:00:36.747Z,950.63
2018-05-02T14:01:43.765Z,933.75
2018-05-02T14:02:50.687Z,967.50